Time;durP1;ratioP1;P1;durP2;ratioP2;P2;SDS_P1;SDS_P2;PMS_P1;PMS_P2;Temp;Humidity;BMP_temperature;BMP_pressure;BME280_temperature;BME280_humidity;BME280_pressure;Samples;Min_cycle;Max_cycle;Signal;HPM_P1;HPM_P2
2023/09/17 17:54:38;;;;;;;17.25;6.45;;;22.90;64.30;;;;;;5088256;28;20891;-54
2023/09/17 17:57:05;;;;;;;14.50;6.18;;;23.20;65.20;;;;;;5068639;28;20029;-54
2023/09/17 17:59:30;;;;;;;14.10;5.60;;;23.20;64.80;;;;;;5068720;28;20474;-51
2023/09/17 18:01:56;;;;;;;10.27;5.60;;;23.20;64.80;;;;;;5068661;28;20104;-49
2023/09/17 18:04:22;;;;;;;9.90;5.75;;;23.20;64.90;;;;;;5068288;28;20074;-52
2023/09/17 18:06:48;;;;;;;11.32;5.70;;;23.20;64.70;;;;;;5082356;23;20037;-58
2023/09/17 18:09:14;;;;;;;12.13;5.88;;;23.20;64.60;;;;;;5048630;28;20032;-57
2023/09/17 18:11:39;;;;;;;10.75;5.53;;;23.20;64.60;;;;;;5047649;28;20415;-57
2023/09/17 18:14:05;;;;;;;11.70;5.97;;;23.20;64.50;;;;;;5048266;28;20025;-57
2023/09/17 18:16:31;;;;;;;10.68;5.88;;;23.20;64.60;;;;;;5038624;28;20376;-57
2023/09/17 18:18:57;;;;;;;11.63;5.95;;;23.20;64.60;;;;;;5068533;28;20082;-57
2023/09/17 18:21:23;;;;;;;10.88;5.70;;;23.20;64.50;;;;;;5068463;28;20411;-56
2023/09/17 18:23:49;;;;;;;10.43;5.75;;;23.20;64.60;;;;;;5050291;28;20033;-58
2023/09/17 18:26:14;;;;;;;11.93;5.47;;;23.20;64.50;;;;;;5068280;28;20112;-55
2023/09/17 18:28:41;;;;;;;9.73;5.72;;;23.20;64.50;;;;;;5068087;28;20035;-55
2023/09/17 18:31:07;;;;;;;10.80;5.72;;;23.20;64.50;;;;;;5068385;28;20029;-58
2023/09/17 18:33:33;;;;;;;9.85;5.85;;;23.20;64.50;;;;;;5067902;28;20077;-56
2023/09/17 18:35:58;;;;;;;10.77;5.60;;;23.20;64.40;;;;;;5068037;28;20028;-55
2023/09/17 18:38:24;;;;;;;12.55;5.90;;;23.20;64.60;;;;;;5068065;28;20551;-58
2023/09/17 18:40:53;;;;;;;9.50;5.43;;;23.20;64.50;;;;;;5067905;28;20028;-57
2023/09/17 18:43:19;;;;;;;10.77;6.00;;;23.20;64.40;;;;;;5067524;28;20127;-56
2023/09/17 18:45:45;;;;;;;10.15;5.97;;;23.20;64.40;;;;;;5067652;28;20109;-57
2023/09/17 18:48:11;;;;;;;9.77;5.45;;;23.20;64.50;;;;;;5067810;28;20035;-58
2023/09/17 18:50:37;;;;;;;12.55;6.13;;;23.20;64.40;;;;;;5067756;28;20475;-57
2023/09/17 18:53:03;;;;;;;16.60;6.38;;;23.20;64.40;;;;;;5065352;28;20017;-53
2023/09/17 18:55:29;;;;;;;14.50;6.10;;;23.20;64.50;;;;;;5049770;28;20095;-55
2023/09/17 18:57:54;;;;;;;11.65;6.22;;;23.20;64.70;;;;;;5047440;28;20029;-57
2023/09/17 19:00:24;;;;;;;12.82;5.55;;;23.20;64.50;;;;;;5049222;28;20524;-55
2023/09/17 19:02:50;;;;;;;20.00;6.10;;;23.20;64.60;;;;;;5052541;28;20043;-55
2023/09/17 19:05:15;;;;;;;13.32;6.72;;;23.20;64.80;;;;;;5033240;28;20025;-57
2023/09/17 19:07:41;;;;;;;14.35;6.40;;;23.10;64.70;;;;;;5051668;28;20056;-51
2023/09/17 19:10:11;;;;;;;13.20;6.22;;;23.20;64.60;;;;;;5049017;28;20032;-57
2023/09/17 19:12:40;;;;;;;9.82;6.22;;;23.10;64.80;;;;;;5053785;28;20033;-55
2023/09/17 19:15:07;;;;;;;9.90;6.03;;;23.20;64.80;;;;;;5053658;28;20025;-58
2023/09/17 19:17:34;;;;;;;12.85;5.97;;;23.10;65.20;;;;;;5053846;28;20032;-57
2023/09/17 19:20:00;;;;;;;15.43;7.35;;;23.10;64.80;;;;;;5047569;28;20455;-55
2023/09/17 19:22:26;;;;;;;13.68;5.75;;;23.10;64.70;;;;;;5048841;28;20120;-53
2023/09/17 19:24:51;;;;;;;14.43;6.53;;;23.10;64.80;;;;;;5034399;28;20033;-57
2023/09/17 19:27:17;;;;;;;14.35;6.40;;;23.10;64.60;;;;;;5042912;28;20057;-56
2023/09/17 19:29:44;;;;;;;12.35;6.70;;;23.10;64.80;;;;;;5049191;28;20025;-53
2023/09/17 19:32:10;;;;;;;13.05;6.32;;;23.20;65.00;;;;;;5046463;28;20041;-56
2023/09/17 19:34:36;;;;;;;11.65;6.82;;;23.10;64.90;;;;;;5033307;28;20029;-57
2023/09/17 19:37:02;;;;;;;10.30;6.15;;;23.20;64.80;;;;;;5045690;28;20029;-55
2023/09/17 19:39:27;;;;;;;12.32;6.60;;;23.10;64.90;;;;;;5044544;28;20025;-57
2023/09/17 19:41:53;;;;;;;10.85;6.38;;;23.20;64.70;;;;;;5042873;28;20029;-53
2023/09/17 19:44:19;;;;;;;12.48;6.00;;;23.10;64.70;;;;;;5036874;28;20026;-54
2023/09/17 19:46:45;;;;;;;12.45;6.50;;;23.20;64.80;;;;;;5033460;28;20425;-54
2023/09/17 19:49:11;;;;;;;11.15;6.35;;;23.10;64.70;;;;;;5033496;28;20091;-56
2023/09/17 19:51:37;;;;;;;11.10;6.53;;;23.20;64.90;;;;;;5038728;28;20490;-59
2023/09/17 19:54:03;;;;;;;10.95;5.85;;;23.20;65.20;;;;;;5035359;28;20106;-55
2023/09/17 19:56:30;;;;;;;13.25;6.47;;;23.20;65.00;;;;;;5031866;28;20092;-58
2023/09/17 19:58:56;;;;;;;12.77;6.25;;;23.20;64.90;;;;;;5036326;28;20193;-58
2023/09/17 20:01:21;;;;;;;13.63;6.25;;;23.20;65.00;;;;;;5049442;28;20025;-51
2023/09/17 20:03:47;;;;;;;16.10;6.70;;;23.20;65.00;;;;;;5040844;28;20575;-57
2023/09/17 20:06:13;;;;;;;11.90;5.88;;;23.30;65.00;;;;;;5031883;28;20021;-54
2023/09/17 20:08:39;;;;;;;15.10;6.45;;;23.20;64.90;;;;;;5032842;28;20033;-58
2023/09/17 20:11:04;;;;;;;9.50;6.00;;;23.20;65.00;;;;;;5037291;28;20037;-56
2023/09/17 20:13:31;;;;;;;13.63;6.68;;;23.30;65.20;;;;;;5035897;28;20029;-54
2023/09/17 20:15:57;;;;;;;13.68;5.80;;;23.20;65.00;;;;;;5032891;28;20036;-56
2023/09/17 20:18:23;;;;;;;11.45;6.57;;;23.20;65.10;;;;;;5042896;28;20029;-56
2023/09/17 20:20:49;;;;;;;11.80;5.90;;;23.20;65.00;;;;;;5052597;28;20075;-54
2023/09/17 20:23:15;;;;;;;14.75;6.05;;;23.20;64.90;;;;;;5050406;28;20119;-59
2023/09/17 20:25:41;;;;;;;8.57;5.70;;;23.20;65.60;;;;;;5036840;28;20097;-58
2023/09/17 20:28:10;;;;;;;16.38;6.38;;;23.20;65.10;;;;;;5045487;28;20078;-58
2023/09/17 20:30:39;;;;;;;15.82;6.35;;;23.20;65.20;;;;;;5042766;28;20079;-56
2023/09/17 20:33:05;;;;;;;12.50;6.68;;;23.30;65.80;;;;;;5045119;28;20112;-58
2023/09/17 20:35:36;;;;;;;18.00;6.70;;;23.30;65.00;;;;;;5047963;28;20032;-59
2023/09/17 20:38:02;;;;;;;10.98;6.43;;;23.30;65.10;;;;;;5044573;28;20021;-59
2023/09/17 20:40:28;;;;;;;12.43;5.63;;;23.30;65.10;;;;;;5052313;28;20033;-58
2023/09/17 20:42:55;;;;;;;11.88;5.53;;;23.20;65.10;;;;;;5052048;28;20631;-58
2023/09/17 20:45:22;;;;;;;10.98;6.15;;;23.20;65.10;;;;;;5047663;28;20036;-58
2023/09/17 20:47:48;;;;;;;13.50;6.47;;;23.20;65.10;;;;;;5049595;28;20028;-58
2023/09/17 20:50:13;;;;;;;9.95;6.13;;;23.20;65.20;;;;;;5052204;28;20025;-58
2023/09/17 20:52:40;;;;;;;12.40;6.07;;;23.20;65.10;;;;;;5052069;28;20051;-59
2023/09/17 20:55:07;;;;;;;13.90;6.55;;;23.20;65.10;;;;;;5051946;28;20399;-55
2023/09/17 20:57:33;;;;;;;11.85;6.40;;;23.20;65.10;;;;;;5041964;28;20063;-58
2023/09/17 21:00:00;;;;;;;10.50;5.90;;;23.20;65.10;;;;;;5051908;28;20132;-58
2023/09/17 21:02:26;;;;;;;15.70;6.30;;;23.20;65.10;;;;;;5051976;28;20107;-57
2023/09/17 21:04:57;;;;;;;9.93;5.82;;;23.20;65.20;;;;;;5051733;28;20099;-58
2023/09/17 21:07:23;;;;;;;10.75;6.22;;;23.10;65.10;;;;;;5048620;28;20123;-58
2023/09/17 21:09:51;;;;;;;12.32;6.88;;;23.10;65.00;;;;;;5050828;28;20275;-58
2023/09/17 21:12:17;;;;;;;10.23;6.55;;;23.10;65.10;;;;;;5051932;28;20033;-54
2023/09/17 21:14:43;;;;;;;13.75;6.13;;;23.10;65.10;;;;;;5039359;28;20037;-58
2023/09/17 21:17:10;;;;;;;20.58;6.47;;;23.20;65.50;;;;;;5036043;28;20639;-58
2023/09/17 21:19:36;;;;;;;34.90;6.53;;;23.30;66.40;;;;;;5031530;28;20021;-58
2023/09/17 21:22:02;;;;;;;20.45;7.20;;;23.30;65.90;;;;;;5035285;28;20023;-57
2023/09/17 21:24:29;;;;;;;14.27;6.80;;;23.20;65.50;;;;;;5045411;28;20104;-58
2023/09/17 21:26:55;;;;;;;30.52;7.30;;;23.20;65.70;;;;;;5050494;28;20025;-53
2023/09/17 21:29:22;;;;;;;17.95;6.90;;;23.20;66.00;;;;;;5051680;28;20103;-57
2023/09/17 21:31:48;;;;;;;19.17;8.50;;;23.20;66.00;;;;;;5047902;28;20033;-56
2023/09/17 21:34:14;;;;;;;22.83;8.25;;;23.20;66.80;;;;;;5048814;28;20033;-58
2023/09/17 21:36:40;;;;;;;26.75;8.20;;;23.20;66.10;;;;;;5046503;28;20060;-55
2023/09/17 21:39:06;;;;;;;23.13;8.23;;;23.20;65.90;;;;;;5043623;28;20064;-58
2023/09/17 21:41:31;;;;;;;15.30;7.40;;;23.20;66.10;;;;;;5044272;28;20062;-55
2023/09/17 21:44:01;;;;;;;16.00;7.78;;;23.20;65.80;;;;;;5045952;28;20480;-56
2023/09/17 21:46:29;;;;;;;16.67;8.00;;;23.20;65.60;;;;;;5040693;28;20025;-57
2023/09/17 21:48:56;;;;;;;23.77;7.93;;;23.10;65.70;;;;;;5039902;28;20149;-58
2023/09/17 21:51:23;;;;;;;11.57;7.22;;;23.20;65.70;;;;;;5046024;28;20060;-57
2023/09/17 21:53:49;;;;;;;17.00;7.47;;;23.20;65.70;;;;;;5048246;28;20053;-56
2023/09/17 21:56:15;;;;;;;34.42;9.15;;;23.20;65.70;;;;;;5044280;28;20032;-58
2023/09/17 21:58:41;;;;;;;17.55;7.75;;;23.10;65.70;;;;;;5042548;28;20074;-57
2023/09/17 22:01:08;;;;;;;21.85;8.13;;;23.10;65.70;;;;;;5048373;28;20040;-54
2023/09/17 22:03:34;;;;;;;14.30;7.57;;;23.20;65.80;;;;;;5047648;28;20029;-58
2023/09/17 22:06:03;;;;;;;12.82;7.68;;;23.20;65.80;;;;;;5046817;28;20063;-56
2023/09/17 22:08:29;;;;;;;11.70;6.95;;;23.20;65.80;;;;;;5043352;28;20040;-58
2023/09/17 22:10:55;;;;;;;11.80;7.68;;;23.20;65.80;;;;;;5047491;28;20562;-54
2023/09/17 22:13:21;;;;;;;13.90;7.28;;;23.20;65.80;;;;;;5046018;28;20033;-56
2023/09/17 22:15:51;;;;;;;13.85;7.20;;;23.20;65.80;;;;;;5047648;28;20035;-56
2023/09/17 22:18:18;;;;;;;16.83;7.75;;;23.30;65.70;;;;;;5043924;28;20033;-56
2023/09/17 22:20:47;;;;;;;13.23;7.60;;;23.30;65.80;;;;;;5045686;28;20021;-58
2023/09/17 22:23:15;;;;;;;12.98;7.35;;;23.20;65.60;;;;;;5046333;28;20036;-57
2023/09/17 22:25:41;;;;;;;10.60;7.00;;;23.20;65.90;;;;;;5047493;28;20051;-56
2023/09/17 22:28:07;;;;;;;13.60;7.63;;;23.30;66.00;;;;;;5041651;28;20501;-56
2023/09/17 22:30:33;;;;;;;11.27;7.20;;;23.30;65.70;;;;;;5048853;28;20025;-55
2023/09/17 22:32:59;;;;;;;12.95;6.63;;;23.30;65.90;;;;;;5051509;28;20033;-54
2023/09/17 22:35:25;;;;;;;12.50;7.43;;;23.20;65.90;;;;;;5051232;28;20400;-52
2023/09/17 22:37:51;;;;;;;19.38;7.18;;;23.20;66.30;;;;;;5050292;28;20031;-54
2023/09/17 22:40:17;;;;;;;17.15;6.70;;;23.30;66.10;;;;;;5038976;28;20439;-56
2023/09/17 22:42:43;;;;;;;13.95;7.07;;;23.30;66.20;;;;;;5042306;28;20055;-52
2023/09/17 22:45:09;;;;;;;15.60;7.78;;;23.30;66.10;;;;;;5049915;28;20048;-55
2023/09/17 22:47:35;;;;;;;15.95;7.38;;;23.30;66.20;;;;;;5051775;28;20025;-54
2023/09/17 22:50:04;;;;;;;20.00;7.93;;;23.30;66.40;;;;;;5050761;28;20025;-54
2023/09/17 22:52:30;;;;;;;36.05;7.80;;;23.30;66.20;;;;;;5049726;28;20090;-50
2023/09/17 22:54:56;;;;;;;26.92;7.80;;;23.30;65.90;;;;;;5042438;28;20474;-57
2023/09/17 22:57:23;;;;;;;19.15;7.43;;;23.30;66.20;;;;;;5048213;28;20063;-52
2023/09/17 22:59:50;;;;;;;20.15;7.43;;;23.30;65.90;;;;;;5043815;28;20037;-49
2023/09/17 23:02:16;;;;;;;15.43;7.30;;;23.20;65.90;;;;;;5050775;28;20459;-50
2023/09/17 23:04:42;;;;;;;13.77;7.95;;;23.20;66.40;;;;;;5050543;28;20021;-52
2023/09/17 23:07:08;;;;;;;23.67;7.70;;;23.20;65.90;;;;;;5046275;28;20028;-54
2023/09/17 23:09:33;;;;;;;15.43;7.30;;;23.20;66.10;;;;;;5049485;28;20036;-50
2023/09/17 23:11:59;;;;;;;16.48;8.32;;;23.10;66.00;;;;;;5052871;28;20059;-52
2023/09/17 23:14:25;;;;;;;15.93;7.50;;;23.10;65.80;;;;;;5050360;28;20104;-53
2023/09/17 23:16:51;;;;;;;17.02;7.53;;;23.10;65.90;;;;;;5045204;28;20017;-52
2023/09/17 23:19:22;;;;;;;17.63;7.93;;;23.00;66.00;;;;;;5048241;28;20033;-54
2023/09/17 23:21:50;;;;;;;13.25;7.88;;;23.00;66.10;;;;;;5042657;28;20021;-54
2023/09/17 23:24:17;;;;;;;13.73;7.38;;;23.10;65.60;;;;;;5050184;28;20036;-50
2023/09/17 23:26:43;;;;;;;12.70;8.13;;;23.10;65.70;;;;;;5047130;28;20042;-52
2023/09/17 23:29:09;;;;;;;17.05;8.13;;;23.10;65.70;;;;;;5051249;28;20036;-55
2023/09/17 23:31:37;;;;;;;11.32;7.78;;;23.10;65.40;;;;;;5043373;28;20068;-54
2023/09/17 23:34:05;;;;;;;13.80;7.70;;;23.10;65.30;;;;;;5047003;28;20111;-52
2023/09/17 23:36:33;;;;;;;12.38;7.30;;;23.10;65.40;;;;;;5038842;28;20061;-53
2023/09/17 23:39:00;;;;;;;13.75;8.15;;;23.10;65.30;;;;;;5041841;28;20032;-52
2023/09/17 23:41:26;;;;;;;11.10;7.30;;;23.10;65.30;;;;;;5048368;28;20029;-54
2023/09/17 23:43:52;;;;;;;12.75;7.70;;;23.10;65.30;;;;;;5045036;28;20033;-52
2023/09/17 23:46:18;;;;;;;9.93;7.28;;;23.10;65.20;;;;;;5049597;28;20029;-54
2023/09/17 23:48:44;;;;;;;11.30;7.70;;;23.10;65.10;;;;;;5051113;28;20071;-55
2023/09/17 23:51:10;;;;;;;11.13;7.30;;;23.10;65.00;;;;;;5047214;28;20026;-52
2023/09/17 23:53:36;;;;;;;10.25;7.35;;;23.10;65.00;;;;;;5040773;28;20087;-53
2023/09/17 23:56:02;;;;;;;12.10;7.45;;;23.10;64.90;;;;;;5043619;28;20112;-53
2023/09/17 23:58:28;;;;;;;10.43;6.93;;;23.10;64.90;;;;;;5050911;28;20051;-54
